sensor_id;sensor_type;location;lat;lon;timestamp;temperature;humidity
12893;DHT22;6514;48.606;9.222;2023-04-24T00:00:39;9.60;99.90
12893;DHT22;6514;48.606;9.222;2023-04-24T00:03:06;9.60;99.90
12893;DHT22;6514;48.606;9.222;2023-04-24T00:05:35;9.60;99.90
12893;DHT22;6514;48.606;9.222;2023-04-24T00:08:02;9.50;99.90
12893;DHT22;6514;48.606;9.222;2023-04-24T00:10:29;9.50;99.90
12893;DHT22;6514;48.606;9.222;2023-04-24T00:12:56;9.50;99.90
12893;DHT22;6514;48.606;9.222;2023-04-24T00:15:23;9.50;99.90
12893;DHT22;6514;48.606;9.222;2023-04-24T00:17:50;9.40;99.90
12893;DHT22;6514;48.606;9.222;2023-04-24T00:20:17;9.40;99.90
12893;DHT22;6514;48.606;9.222;2023-04-24T00:22:45;9.40;99.90
12893;DHT22;6514;48.606;9.222;2023-04-24T00:25:12;9.40;99.90
12893;DHT22;6514;48.606;9.222;2023-04-24T00:27:39;9.40;99.90
12893;DHT22;6514;48.606;9.222;2023-04-24T00:30:07;9.50;99.90
12893;DHT22;6514;48.606;9.222;2023-04-24T00:32:34;9.50;99.90
12893;DHT22;6514;48.606;9.222;2023-04-24T00:35:01;9.60;99.90
12893;DHT22;6514;48.606;9.222;2023-04-24T00:37:28;9.70;99.90
12893;DHT22;6514;48.606;9.222;2023-04-24T00:39:56;9.70;99.90
12893;DHT22;6514;48.606;9.222;2023-04-24T00:42:23;9.70;99.90
12893;DHT22;6514;48.606;9.222;2023-04-24T00:44:51;9.80;99.90
12893;DHT22;6514;48.606;9.222;2023-04-24T00:47:19;9.80;99.90
12893;DHT22;6514;48.606;9.222;2023-04-24T00:49:47;9.90;99.90
12893;DHT22;6514;48.606;9.222;2023-04-24T00:52:14;9.90;99.90
12893;DHT22;6514;48.606;9.222;2023-04-24T00:54:43;10.00;99.90
12893;DHT22;6514;48.606;9.222;2023-04-24T00:57:13;10.00;99.90
12893;DHT22;6514;48.606;9.222;2023-04-24T00:59:41;10.00;99.90
12893;DHT22;6514;48.606;9.222;2023-04-24T01:02:08;10.10;99.90
12893;DHT22;6514;48.606;9.222;2023-04-24T01:04:36;10.10;99.90
12893;DHT22;6514;48.606;9.222;2023-04-24T01:07:03;10.10;99.90
12893;DHT22;6514;48.606;9.222;2023-04-24T01:09:35;10.10;99.90
12893;DHT22;6514;48.606;9.222;2023-04-24T01:12:03;10.10;99.90
12893;DHT22;6514;48.606;9.222;2023-04-24T01:14:31;10.10;99.90
12893;DHT22;6514;48.606;9.222;2023-04-24T01:17:01;10.20;99.90
12893;DHT22;6514;48.606;9.222;2023-04-24T01:19:28;10.10;99.90
12893;DHT22;6514;48.606;9.222;2023-04-24T01:21:58;10.10;99.90
12893;DHT22;6514;48.606;9.222;2023-04-24T01:24:30;10.10;99.90
12893;DHT22;6514;48.606;9.222;2023-04-24T01:26:57;10.10;99.90
12893;DHT22;6514;48.606;9.222;2023-04-24T01:29:24;10.10;99.90
12893;DHT22;6514;48.606;9.222;2023-04-24T01:31:51;10.10;99.90
12893;DHT22;6514;48.606;9.222;2023-04-24T01:34:18;10.10;99.90
12893;DHT22;6514;48.606;9.222;2023-04-24T01:36:46;10.10;99.90
12893;DHT22;6514;48.606;9.222;2023-04-24T01:39:12;10.10;99.90
12893;DHT22;6514;48.606;9.222;2023-04-24T01:41:42;10.10;99.90
12893;DHT22;6514;48.606;9.222;2023-04-24T01:44:09;10.00;99.90
12893;DHT22;6514;48.606;9.222;2023-04-24T01:46:36;10.00;99.90
12893;DHT22;6514;48.606;9.222;2023-04-24T01:49:03;10.00;99.90
12893;DHT22;6514;48.606;9.222;2023-04-24T01:51:30;10.00;99.90
12893;DHT22;6514;48.606;9.222;2023-04-24T01:53:57;10.00;99.90
12893;DHT22;6514;48.606;9.222;2023-04-24T01:56:24;9.90;99.90
12893;DHT22;6514;48.606;9.222;2023-04-24T01:58:54;9.80;99.90
12893;DHT22;6514;48.606;9.222;2023-04-24T02:01:23;9.80;99.90
12893;DHT22;6514;48.606;9.222;2023-04-24T02:03:51;9.80;99.90
12893;DHT22;6514;48.606;9.222;2023-04-24T02:06:17;9.80;99.90
12893;DHT22;6514;48.606;9.222;2023-04-24T02:08:45;9.80;99.90
12893;DHT22;6514;48.606;9.222;2023-04-24T02:11:11;9.80;99.90
12893;DHT22;6514;48.606;9.222;2023-04-24T02:13:38;9.70;99.90
12893;DHT22;6514;48.606;9.222;2023-04-24T02:16:07;9.80;99.90
12893;DHT22;6514;48.606;9.222;2023-04-24T02:18:33;9.80;99.90
12893;DHT22;6514;48.606;9.222;2023-04-24T02:21:00;9.80;99.90
12893;DHT22;6514;48.606;9.222;2023-04-24T02:23:27;9.80;99.90
12893;DHT22;6514;48.606;9.222;2023-04-24T02:25:54;9.90;99.90
12893;DHT22;6514;48.606;9.222;2023-04-24T02:28:21;9.80;99.90
12893;DHT22;6514;48.606;9.222;2023-04-24T02:30:48;9.80;99.90
12893;DHT22;6514;48.606;9.222;2023-04-24T02:33:16;9.80;99.90
12893;DHT22;6514;48.606;9.222;2023-04-24T02:35:43;9.80;99.90
12893;DHT22;6514;48.606;9.222;2023-04-24T02:38:10;9.70;99.90
12893;DHT22;6514;48.606;9.222;2023-04-24T02:40:37;9.70;99.90
12893;DHT22;6514;48.606;9.222;2023-04-24T02:43:04;9.60;99.90
12893;DHT22;6514;48.606;9.222;2023-04-24T02:45:30;9.60;99.90
12893;DHT22;6514;48.606;9.222;2023-04-24T02:48:00;9.50;99.90
12893;DHT22;6514;48.606;9.222;2023-04-24T02:50:28;9.50;99.90
12893;DHT22;6514;48.606;9.222;2023-04-24T02:52:55;9.50;99.90
12893;DHT22;6514;48.606;9.222;2023-04-24T02:55:22;9.60;99.90
12893;DHT22;6514;48.606;9.222;2023-04-24T02:57:48;9.60;99.90
12893;DHT22;6514;48.606;9.222;2023-04-24T03:00:16;9.60;99.90
12893;DHT22;6514;48.606;9.222;2023-04-24T03:02:43;9.60;99.90
12893;DHT22;6514;48.606;9.222;2023-04-24T03:05:09;9.60;99.90
12893;DHT22;6514;48.606;9.222;2023-04-24T03:07:39;9.70;99.90
12893;DHT22;6514;48.606;9.222;2023-04-24T03:10:07;9.70;99.90
12893;DHT22;6514;48.606;9.222;2023-04-24T03:12:34;9.70;99.90
12893;DHT22;6514;48.606;9.222;2023-04-24T03:15:01;9.70;99.90
12893;DHT22;6514;48.606;9.222;2023-04-24T03:17:28;9.70;99.90
12893;DHT22;6514;48.606;9.222;2023-04-24T03:19:55;9.70;99.90
12893;DHT22;6514;48.606;9.222;2023-04-24T03:22:22;9.70;99.90
12893;DHT22;6514;48.606;9.222;2023-04-24T03:24:50;9.60;99.90
12893;DHT22;6514;48.606;9.222;2023-04-24T03:27:17;9.70;99.90
12893;DHT22;6514;48.606;9.222;2023-04-24T03:29:44;9.70;99.90
12893;DHT22;6514;48.606;9.222;2023-04-24T03:32:11;9.70;99.90
12893;DHT22;6514;48.606;9.222;2023-04-24T03:34:37;9.70;99.90
12893;DHT22;6514;48.606;9.222;2023-04-24T03:37:04;9.60;99.90
12893;DHT22;6514;48.606;9.222;2023-04-24T03:39:31;9.60;99.90
12893;DHT22;6514;48.606;9.222;2023-04-24T03:41:59;9.60;99.90
12893;DHT22;6514;48.606;9.222;2023-04-24T03:44:26;9.60;99.90
12893;DHT22;6514;48.606;9.222;2023-04-24T03:46:53;9.50;99.90
12893;DHT22;6514;48.606;9.222;2023-04-24T03:49:20;9.50;99.90
12893;DHT22;6514;48.606;9.222;2023-04-24T03:51:47;9.50;99.90
12893;DHT22;6514;48.606;9.222;2023-04-24T03:54:14;9.40;99.90
12893;DHT22;6514;48.606;9.222;2023-04-24T03:56:41;9.40;99.90
12893;DHT22;6514;48.606;9.222;2023-04-24T03:59:09;9.20;99.90
12893;DHT22;6514;48.606;9.222;2023-04-24T04:01:36;9.20;99.90
12893;DHT22;6514;48.606;9.222;2023-04-24T04:04:05;9.10;99.90
12893;DHT22;6514;48.606;9.222;2023-04-24T04:06:32;9.00;99.90
12893;DHT22;6514;48.606;9.222;2023-04-24T04:08:59;9.00;99.90
12893;DHT22;6514;48.606;9.222;2023-04-24T04:11:26;8.90;99.90
12893;DHT22;6514;48.606;9.222;2023-04-24T04:13:53;8.90;99.90
12893;DHT22;6514;48.606;9.222;2023-04-24T04:16:21;8.80;99.90
12893;DHT22;6514;48.606;9.222;2023-04-24T04:18:48;8.70;99.90
12893;DHT22;6514;48.606;9.222;2023-04-24T04:21:15;8.70;99.90
12893;DHT22;6514;48.606;9.222;2023-04-24T04:23:42;8.60;99.90
12893;DHT22;6514;48.606;9.222;2023-04-24T04:26:09;8.60;99.90
12893;DHT22;6514;48.606;9.222;2023-04-24T04:28:36;8.70;99.90
12893;DHT22;6514;48.606;9.222;2023-04-24T04:31:03;8.70;99.90
12893;DHT22;6514;48.606;9.222;2023-04-24T04:33:31;8.70;99.90
12893;DHT22;6514;48.606;9.222;2023-04-24T04:35:58;8.80;99.90
12893;DHT22;6514;48.606;9.222;2023-04-24T04:38:25;8.80;99.90
12893;DHT22;6514;48.606;9.222;2023-04-24T04:40:55;8.80;99.90
12893;DHT22;6514;48.606;9.222;2023-04-24T04:43:23;8.90;99.90
12893;DHT22;6514;48.606;9.222;2023-04-24T04:45:50;8.90;99.90
12893;DHT22;6514;48.606;9.222;2023-04-24T04:48:17;9.00;99.90
12893;DHT22;6514;48.606;9.222;2023-04-24T04:50:46;9.10;99.90
12893;DHT22;6514;48.606;9.222;2023-04-24T04:53:12;9.20;99.90
12893;DHT22;6514;48.606;9.222;2023-04-24T04:55:39;9.20;99.90
12893;DHT22;6514;48.606;9.222;2023-04-24T04:58:06;9.30;99.90
12893;DHT22;6514;48.606;9.222;2023-04-24T05:00:33;9.40;99.90
12893;DHT22;6514;48.606;9.222;2023-04-24T05:03:01;9.30;99.90
12893;DHT22;6514;48.606;9.222;2023-04-24T05:05:28;9.40;99.90
12893;DHT22;6514;48.606;9.222;2023-04-24T05:07:56;9.40;99.90
12893;DHT22;6514;48.606;9.222;2023-04-24T05:10:23;9.40;99.90
12893;DHT22;6514;48.606;9.222;2023-04-24T05:12:50;9.40;99.90
12893;DHT22;6514;48.606;9.222;2023-04-24T05:15:17;9.30;99.90
12893;DHT22;6514;48.606;9.222;2023-04-24T05:17:44;9.20;99.90
12893;DHT22;6514;48.606;9.222;2023-04-24T05:20:11;9.20;99.90
12893;DHT22;6514;48.606;9.222;2023-04-24T05:22:38;9.10;99.90
12893;DHT22;6514;48.606;9.222;2023-04-24T05:25:07;9.00;99.90
12893;DHT22;6514;48.606;9.222;2023-04-24T05:27:34;9.00;99.90
12893;DHT22;6514;48.606;9.222;2023-04-24T05:30:01;8.90;99.90
12893;DHT22;6514;48.606;9.222;2023-04-24T05:32:28;8.80;99.90
12893;DHT22;6514;48.606;9.222;2023-04-24T05:34:55;8.80;99.90
12893;DHT22;6514;48.606;9.222;2023-04-24T05:37:22;8.80;99.90
12893;DHT22;6514;48.606;9.222;2023-04-24T05:39:48;8.80;99.90
12893;DHT22;6514;48.606;9.222;2023-04-24T05:42:17;8.80;99.90
12893;DHT22;6514;48.606;9.222;2023-04-24T05:44:44;8.80;99.90
12893;DHT22;6514;48.606;9.222;2023-04-24T05:47:10;8.90;99.90
12893;DHT22;6514;48.606;9.222;2023-04-24T05:49:37;8.90;99.90
12893;DHT22;6514;48.606;9.222;2023-04-24T05:52:04;9.00;99.90
12893;DHT22;6514;48.606;9.222;2023-04-24T05:54:34;9.10;99.90
12893;DHT22;6514;48.606;9.222;2023-04-24T05:57:02;9.10;99.90
12893;DHT22;6514;48.606;9.222;2023-04-24T05:59:36;9.20;99.90
12893;DHT22;6514;48.606;9.222;2023-04-24T06:02:03;9.30;99.90
12893;DHT22;6514;48.606;9.222;2023-04-24T06:04:32;9.40;99.90
12893;DHT22;6514;48.606;9.222;2023-04-24T06:06:59;9.50;99.90
12893;DHT22;6514;48.606;9.222;2023-04-24T06:09:26;9.60;99.90
12893;DHT22;6514;48.606;9.222;2023-04-24T06:11:53;9.70;99.90
12893;DHT22;6514;48.606;9.222;2023-04-24T06:14:20;9.80;99.90
12893;DHT22;6514;48.606;9.222;2023-04-24T06:16:48;9.80;99.90
12893;DHT22;6514;48.606;9.222;2023-04-24T06:19:15;10.00;99.90
12893;DHT22;6514;48.606;9.222;2023-04-24T06:21:42;10.10;99.90
12893;DHT22;6514;48.606;9.222;2023-04-24T06:24:09;10.20;99.90
12893;DHT22;6514;48.606;9.222;2023-04-24T06:26:36;10.20;99.90
12893;DHT22;6514;48.606;9.222;2023-04-24T06:29:03;10.50;99.90
12893;DHT22;6514;48.606;9.222;2023-04-24T06:31:30;10.80;99.90
12893;DHT22;6514;48.606;9.222;2023-04-24T06:34:03;11.00;99.90
12893;DHT22;6514;48.606;9.222;2023-04-24T06:36:30;11.30;99.90
12893;DHT22;6514;48.606;9.222;2023-04-24T06:38:59;11.60;99.90
12893;DHT22;6514;48.606;9.222;2023-04-24T06:41:27;12.00;99.90
12893;DHT22;6514;48.606;9.222;2023-04-24T06:43:54;12.30;99.90
12893;DHT22;6514;48.606;9.222;2023-04-24T06:46:21;12.60;99.90
12893;DHT22;6514;48.606;9.222;2023-04-24T06:48:51;12.90;99.90
12893;DHT22;6514;48.606;9.222;2023-04-24T06:51:22;13.10;99.90
12893;DHT22;6514;48.606;9.222;2023-04-24T06:53:49;13.30;99.90
12893;DHT22;6514;48.606;9.222;2023-04-24T06:56:16;13.50;99.90
12893;DHT22;6514;48.606;9.222;2023-04-24T06:58:43;13.70;99.90
12893;DHT22;6514;48.606;9.222;2023-04-24T07:01:11;13.90;99.90
12893;DHT22;6514;48.606;9.222;2023-04-24T07:03:37;13.80;99.90
12893;DHT22;6514;48.606;9.222;2023-04-24T07:06:05;13.90;99.90
12893;DHT22;6514;48.606;9.222;2023-04-24T07:08:33;13.60;99.90
12893;DHT22;6514;48.606;9.222;2023-04-24T07:11:01;13.60;99.90
12893;DHT22;6514;48.606;9.222;2023-04-24T07:13:28;13.50;99.90
12893;DHT22;6514;48.606;9.222;2023-04-24T07:15:55;13.50;99.90
12893;DHT22;6514;48.606;9.222;2023-04-24T07:18:22;13.50;99.90
12893;DHT22;6514;48.606;9.222;2023-04-24T07:20:49;13.40;99.90
12893;DHT22;6514;48.606;9.222;2023-04-24T07:23:16;13.10;99.90
12893;DHT22;6514;48.606;9.222;2023-04-24T07:25:44;12.70;99.90
12893;DHT22;6514;48.606;9.222;2023-04-24T07:28:12;12.40;99.90
12893;DHT22;6514;48.606;9.222;2023-04-24T07:30:39;12.10;99.90
12893;DHT22;6514;48.606;9.222;2023-04-24T07:33:06;11.90;99.90
12893;DHT22;6514;48.606;9.222;2023-04-24T07:35:33;11.70;99.90
12893;DHT22;6514;48.606;9.222;2023-04-24T07:38:01;11.80;99.90
12893;DHT22;6514;48.606;9.222;2023-04-24T07:40:27;12.00;99.90
12893;DHT22;6514;48.606;9.222;2023-04-24T07:42:56;12.20;99.90
12893;DHT22;6514;48.606;9.222;2023-04-24T07:45:22;12.50;99.90
12893;DHT22;6514;48.606;9.222;2023-04-24T07:47:51;13.00;99.90
12893;DHT22;6514;48.606;9.222;2023-04-24T07:50:18;13.60;99.90
12893;DHT22;6514;48.606;9.222;2023-04-24T07:52:45;13.70;99.90
12893;DHT22;6514;48.606;9.222;2023-04-24T07:55:13;13.70;99.90
12893;DHT22;6514;48.606;9.222;2023-04-24T07:57:40;13.50;99.90
12893;DHT22;6514;48.606;9.222;2023-04-24T08:00:09;13.40;99.90
12893;DHT22;6514;48.606;9.222;2023-04-24T08:02:36;13.20;99.90
12893;DHT22;6514;48.606;9.222;2023-04-24T08:05:03;13.30;99.90
12893;DHT22;6514;48.606;9.222;2023-04-24T08:07:31;13.60;99.90
12893;DHT22;6514;48.606;9.222;2023-04-24T08:09:58;14.20;99.90
12893;DHT22;6514;48.606;9.222;2023-04-24T08:12:25;14.70;99.90
12893;DHT22;6514;48.606;9.222;2023-04-24T08:14:52;15.00;99.90
12893;DHT22;6514;48.606;9.222;2023-04-24T08:17:21;15.40;99.90
12893;DHT22;6514;48.606;9.222;2023-04-24T08:19:48;15.30;99.90
12893;DHT22;6514;48.606;9.222;2023-04-24T08:22:16;15.10;99.90
12893;DHT22;6514;48.606;9.222;2023-04-24T08:24:44;14.70;99.90
12893;DHT22;6514;48.606;9.222;2023-04-24T08:27:11;14.20;99.90
12893;DHT22;6514;48.606;9.222;2023-04-24T08:29:37;13.90;99.90
12893;DHT22;6514;48.606;9.222;2023-04-24T08:32:04;13.50;99.90
12893;DHT22;6514;48.606;9.222;2023-04-24T08:34:33;13.30;99.90
12893;DHT22;6514;48.606;9.222;2023-04-24T08:37:00;13.20;99.90
12893;DHT22;6514;48.606;9.222;2023-04-24T08:39:27;13.30;99.90
12893;DHT22;6514;48.606;9.222;2023-04-24T08:41:55;13.60;99.90
12893;DHT22;6514;48.606;9.222;2023-04-24T08:44:22;13.70;99.90
12893;DHT22;6514;48.606;9.222;2023-04-24T08:46:49;13.80;99.90
12893;DHT22;6514;48.606;9.222;2023-04-24T08:49:17;14.10;99.90
12893;DHT22;6514;48.606;9.222;2023-04-24T08:51:46;14.40;99.90
12893;DHT22;6514;48.606;9.222;2023-04-24T08:54:15;14.70;99.90
12893;DHT22;6514;48.606;9.222;2023-04-24T08:56:44;14.90;99.90
12893;DHT22;6514;48.606;9.222;2023-04-24T08:59:11;14.80;99.90
12893;DHT22;6514;48.606;9.222;2023-04-24T09:01:40;14.80;99.90
12893;DHT22;6514;48.606;9.222;2023-04-24T09:04:09;15.20;99.90
12893;DHT22;6514;48.606;9.222;2023-04-24T09:06:37;15.30;99.90
12893;DHT22;6514;48.606;9.222;2023-04-24T09:09:06;15.20;99.90
12893;DHT22;6514;48.606;9.222;2023-04-24T09:11:34;14.90;99.90
12893;DHT22;6514;48.606;9.222;2023-04-24T09:14:01;14.50;99.90
12893;DHT22;6514;48.606;9.222;2023-04-24T09:16:28;14.10;99.90
12893;DHT22;6514;48.606;9.222;2023-04-24T09:18:55;14.10;99.90
12893;DHT22;6514;48.606;9.222;2023-04-24T09:21:22;14.10;99.90
12893;DHT22;6514;48.606;9.222;2023-04-24T09:23:58;14.30;99.90
12893;DHT22;6514;48.606;9.222;2023-04-24T09:26:29;14.60;99.90
12893;DHT22;6514;48.606;9.222;2023-04-24T09:28:59;15.00;99.90
12893;DHT22;6514;48.606;9.222;2023-04-24T09:31:28;15.00;99.90
12893;DHT22;6514;48.606;9.222;2023-04-24T09:33:57;15.20;99.90
12893;DHT22;6514;48.606;9.222;2023-04-24T09:36:27;15.70;99.90
12893;DHT22;6514;48.606;9.222;2023-04-24T09:38:58;15.90;99.90
12893;DHT22;6514;48.606;9.222;2023-04-24T09:41:27;15.70;99.90
12893;DHT22;6514;48.606;9.222;2023-04-24T09:43:55;15.60;99.90
12893;DHT22;6514;48.606;9.222;2023-04-24T09:46:29;15.20;99.90
12893;DHT22;6514;48.606;9.222;2023-04-24T09:48:56;14.70;99.90
12893;DHT22;6514;48.606;9.222;2023-04-24T09:51:33;14.20;99.90
12893;DHT22;6514;48.606;9.222;2023-04-24T09:54:00;13.90;99.90
12893;DHT22;6514;48.606;9.222;2023-04-24T09:56:32;13.80;99.90
12893;DHT22;6514;48.606;9.222;2023-04-24T09:59:04;13.60;99.90
12893;DHT22;6514;48.606;9.222;2023-04-24T10:01:32;13.60;99.90
12893;DHT22;6514;48.606;9.222;2023-04-24T10:03:59;14.20;99.90
12893;DHT22;6514;48.606;9.222;2023-04-24T10:06:32;14.70;99.90
12893;DHT22;6514;48.606;9.222;2023-04-24T10:08:59;14.80;99.90
12893;DHT22;6514;48.606;9.222;2023-04-24T10:11:27;15.10;99.90
12893;DHT22;6514;48.606;9.222;2023-04-24T10:13:55;15.30;99.90
12893;DHT22;6514;48.606;9.222;2023-04-24T10:16:23;15.70;99.90
12893;DHT22;6514;48.606;9.222;2023-04-24T10:18:50;16.00;99.90
12893;DHT22;6514;48.606;9.222;2023-04-24T10:21:17;16.60;99.90
12893;DHT22;6514;48.606;9.222;2023-04-24T10:23:44;17.00;99.90
12893;DHT22;6514;48.606;9.222;2023-04-24T10:26:12;17.10;99.90
12893;DHT22;6514;48.606;9.222;2023-04-24T10:28:44;16.90;99.90
12893;DHT22;6514;48.606;9.222;2023-04-24T10:31:13;17.30;99.90
12893;DHT22;6514;48.606;9.222;2023-04-24T10:33:41;17.10;99.90
12893;DHT22;6514;48.606;9.222;2023-04-24T10:36:10;16.50;99.90
12893;DHT22;6514;48.606;9.222;2023-04-24T10:38:39;16.00;99.90
12893;DHT22;6514;48.606;9.222;2023-04-24T10:41:07;15.70;99.90
12893;DHT22;6514;48.606;9.222;2023-04-24T10:43:35;15.70;99.90
12893;DHT22;6514;48.606;9.222;2023-04-24T10:46:03;15.60;99.90
12893;DHT22;6514;48.606;9.222;2023-04-24T10:48:33;15.50;99.90
12893;DHT22;6514;48.606;9.222;2023-04-24T10:51:00;15.80;99.90
12893;DHT22;6514;48.606;9.222;2023-04-24T10:53:28;16.10;99.90
12893;DHT22;6514;48.606;9.222;2023-04-24T10:56:02;16.10;99.90
12893;DHT22;6514;48.606;9.222;2023-04-24T10:58:36;16.20;99.90
12893;DHT22;6514;48.606;9.222;2023-04-24T11:01:04;16.20;99.90
12893;DHT22;6514;48.606;9.222;2023-04-24T11:03:35;16.10;99.90
12893;DHT22;6514;48.606;9.222;2023-04-24T11:06:03;15.60;99.90
12893;DHT22;6514;48.606;9.222;2023-04-24T11:08:32;15.00;99.90
12893;DHT22;6514;48.606;9.222;2023-04-24T11:11:08;14.50;99.90
12893;DHT22;6514;48.606;9.222;2023-04-24T11:14:03;14.00;99.90
12893;DHT22;6514;48.606;9.222;2023-04-24T11:16:33;13.90;99.90
12893;DHT22;6514;48.606;9.222;2023-04-24T11:19:03;13.60;99.90
12893;DHT22;6514;48.606;9.222;2023-04-24T11:21:41;13.50;99.90
12893;DHT22;6514;48.606;9.222;2023-04-24T11:24:29;13.80;99.90
12893;DHT22;6514;48.606;9.222;2023-04-24T11:26:57;13.90;99.90
12893;DHT22;6514;48.606;9.222;2023-04-24T11:29:39;13.80;99.90
12893;DHT22;6514;48.606;9.222;2023-04-24T11:32:23;13.70;99.90
12893;DHT22;6514;48.606;9.222;2023-04-24T11:34:53;13.60;99.90
12893;DHT22;6514;48.606;9.222;2023-04-24T11:37:21;13.50;99.90
12893;DHT22;6514;48.606;9.222;2023-04-24T11:39:51;13.50;99.90
12893;DHT22;6514;48.606;9.222;2023-04-24T11:42:18;13.60;99.90
12893;DHT22;6514;48.606;9.222;2023-04-24T11:44:46;13.70;99.90
12893;DHT22;6514;48.606;9.222;2023-04-24T11:47:14;13.50;99.90
12893;DHT22;6514;48.606;9.222;2023-04-24T11:49:41;13.20;99.90
12893;DHT22;6514;48.606;9.222;2023-04-24T11:52:09;13.00;99.90
12893;DHT22;6514;48.606;9.222;2023-04-24T11:54:37;12.90;99.90
12893;DHT22;6514;48.606;9.222;2023-04-24T11:57:04;12.70;99.90
12893;DHT22;6514;48.606;9.222;2023-04-24T11:59:35;12.70;99.90
12893;DHT22;6514;48.606;9.222;2023-04-24T12:02:03;12.90;99.90
12893;DHT22;6514;48.606;9.222;2023-04-24T12:04:38;13.10;99.90
12893;DHT22;6514;48.606;9.222;2023-04-24T12:07:06;13.60;99.90
12893;DHT22;6514;48.606;9.222;2023-04-24T12:09:46;13.90;99.90
12893;DHT22;6514;48.606;9.222;2023-04-24T12:12:13;14.20;99.90
12893;DHT22;6514;48.606;9.222;2023-04-24T12:14:59;14.60;99.90
12893;DHT22;6514;48.606;9.222;2023-04-24T12:17:27;14.50;99.90
12893;DHT22;6514;48.606;9.222;2023-04-24T12:19:58;14.50;99.90
12893;DHT22;6514;48.606;9.222;2023-04-24T12:22:26;14.30;99.90
12893;DHT22;6514;48.606;9.222;2023-04-24T12:24:58;14.00;99.90
12893;DHT22;6514;48.606;9.222;2023-04-24T12:27:26;14.00;99.90
12893;DHT22;6514;48.606;9.222;2023-04-24T12:29:53;13.90;99.90
12893;DHT22;6514;48.606;9.222;2023-04-24T12:32:21;13.90;99.90
12893;DHT22;6514;48.606;9.222;2023-04-24T12:34:49;13.80;99.90
12893;DHT22;6514;48.606;9.222;2023-04-24T12:37:17;13.50;99.90
12893;DHT22;6514;48.606;9.222;2023-04-24T12:40:04;13.50;99.90
12893;DHT22;6514;48.606;9.222;2023-04-24T12:42:32;13.20;99.90
12893;DHT22;6514;48.606;9.222;2023-04-24T12:45:01;13.00;99.90
12893;DHT22;6514;48.606;9.222;2023-04-24T12:47:29;12.90;99.90
12893;DHT22;6514;48.606;9.222;2023-04-24T12:49:57;12.90;99.90
12893;DHT22;6514;48.606;9.222;2023-04-24T12:52:24;12.90;99.90
12893;DHT22;6514;48.606;9.222;2023-04-24T12:54:53;13.00;99.90
12893;DHT22;6514;48.606;9.222;2023-04-24T12:57:22;13.20;99.90
12893;DHT22;6514;48.606;9.222;2023-04-24T12:59:49;13.30;99.90
12893;DHT22;6514;48.606;9.222;2023-04-24T13:02:16;13.40;99.90
12893;DHT22;6514;48.606;9.222;2023-04-24T13:04:44;13.40;99.90
12893;DHT22;6514;48.606;9.222;2023-04-24T13:07:12;13.50;99.90
12893;DHT22;6514;48.606;9.222;2023-04-24T13:09:39;14.00;99.90
12893;DHT22;6514;48.606;9.222;2023-04-24T13:12:06;14.20;99.90
12893;DHT22;6514;48.606;9.222;2023-04-24T13:14:35;14.80;99.90
12893;DHT22;6514;48.606;9.222;2023-04-24T13:17:02;15.20;99.90
12893;DHT22;6514;48.606;9.222;2023-04-24T13:19:29;15.90;99.90
12893;DHT22;6514;48.606;9.222;2023-04-24T13:21:56;16.00;99.90
12893;DHT22;6514;48.606;9.222;2023-04-24T13:24:24;15.80;99.90
12893;DHT22;6514;48.606;9.222;2023-04-24T13:26:51;15.50;99.90
12893;DHT22;6514;48.606;9.222;2023-04-24T13:29:19;15.30;99.90
12893;DHT22;6514;48.606;9.222;2023-04-24T13:31:49;15.20;99.90
12893;DHT22;6514;48.606;9.222;2023-04-24T13:34:16;15.00;99.90
12893;DHT22;6514;48.606;9.222;2023-04-24T13:36:43;14.80;99.90
12893;DHT22;6514;48.606;9.222;2023-04-24T13:39:10;14.70;99.90
12893;DHT22;6514;48.606;9.222;2023-04-24T13:41:37;14.60;99.90
12893;DHT22;6514;48.606;9.222;2023-04-24T13:44:04;14.50;99.90
12893;DHT22;6514;48.606;9.222;2023-04-24T13:46:31;14.30;99.90
12893;DHT22;6514;48.606;9.222;2023-04-24T13:48:59;14.00;99.90
12893;DHT22;6514;48.606;9.222;2023-04-24T13:51:26;14.00;99.90
12893;DHT22;6514;48.606;9.222;2023-04-24T13:53:54;13.90;99.90
12893;DHT22;6514;48.606;9.222;2023-04-24T13:56:22;13.90;99.90
12893;DHT22;6514;48.606;9.222;2023-04-24T13:58:49;13.50;99.90
12893;DHT22;6514;48.606;9.222;2023-04-24T14:01:15;13.40;99.90
12893;DHT22;6514;48.606;9.222;2023-04-24T14:03:43;13.20;99.90
12893;DHT22;6514;48.606;9.222;2023-04-24T14:06:11;13.20;99.90
12893;DHT22;6514;48.606;9.222;2023-04-24T14:08:38;12.90;99.90
12893;DHT22;6514;48.606;9.222;2023-04-24T14:11:05;12.80;99.90
12893;DHT22;6514;48.606;9.222;2023-04-24T14:13:31;12.70;99.90
12893;DHT22;6514;48.606;9.222;2023-04-24T14:15:58;12.50;99.90
12893;DHT22;6514;48.606;9.222;2023-04-24T14:18:25;12.40;99.90
12893;DHT22;6514;48.606;9.222;2023-04-24T14:20:52;12.20;99.90
12893;DHT22;6514;48.606;9.222;2023-04-24T14:23:21;12.20;99.90
12893;DHT22;6514;48.606;9.222;2023-04-24T14:25:48;12.20;99.90
12893;DHT22;6514;48.606;9.222;2023-04-24T14:28:17;12.20;99.90
12893;DHT22;6514;48.606;9.222;2023-04-24T14:30:44;12.20;99.90
12893;DHT22;6514;48.606;9.222;2023-04-24T14:33:11;12.20;99.90
12893;DHT22;6514;48.606;9.222;2023-04-24T14:35:38;12.20;99.90
12893;DHT22;6514;48.606;9.222;2023-04-24T14:38:05;12.10;99.90
12893;DHT22;6514;48.606;9.222;2023-04-24T14:40:33;12.20;99.90
12893;DHT22;6514;48.606;9.222;2023-04-24T14:43:01;12.30;99.90
12893;DHT22;6514;48.606;9.222;2023-04-24T14:45:28;12.40;99.90
12893;DHT22;6514;48.606;9.222;2023-04-24T14:47:55;12.50;99.90
12893;DHT22;6514;48.606;9.222;2023-04-24T14:50:23;12.70;99.90
12893;DHT22;6514;48.606;9.222;2023-04-24T14:52:53;12.90;99.90
12893;DHT22;6514;48.606;9.222;2023-04-24T14:55:20;13.10;99.90
12893;DHT22;6514;48.606;9.222;2023-04-24T14:57:48;13.10;99.90
12893;DHT22;6514;48.606;9.222;2023-04-24T15:00:16;13.30;99.90
12893;DHT22;6514;48.606;9.222;2023-04-24T15:02:43;13.40;99.90
12893;DHT22;6514;48.606;9.222;2023-04-24T15:05:10;13.50;99.90
12893;DHT22;6514;48.606;9.222;2023-04-24T15:07:37;13.50;99.90
12893;DHT22;6514;48.606;9.222;2023-04-24T15:10:05;13.30;99.90
12893;DHT22;6514;48.606;9.222;2023-04-24T15:12:32;13.20;99.90
12893;DHT22;6514;48.606;9.222;2023-04-24T15:15:00;13.20;99.90
12893;DHT22;6514;48.606;9.222;2023-04-24T15:17:27;13.10;99.90
12893;DHT22;6514;48.606;9.222;2023-04-24T15:19:54;13.20;99.90
12893;DHT22;6514;48.606;9.222;2023-04-24T15:22:21;13.30;99.90
12893;DHT22;6514;48.606;9.222;2023-04-24T15:24:48;13.20;99.90
12893;DHT22;6514;48.606;9.222;2023-04-24T15:27:15;13.20;99.90
12893;DHT22;6514;48.606;9.222;2023-04-24T15:29:42;13.20;99.90
12893;DHT22;6514;48.606;9.222;2023-04-24T15:32:10;13.10;99.90
12893;DHT22;6514;48.606;9.222;2023-04-24T15:34:37;13.10;99.90
12893;DHT22;6514;48.606;9.222;2023-04-24T15:37:04;13.10;99.90
12893;DHT22;6514;48.606;9.222;2023-04-24T15:39:31;13.10;99.90
12893;DHT22;6514;48.606;9.222;2023-04-24T15:41:59;13.20;99.90
12893;DHT22;6514;48.606;9.222;2023-04-24T15:44:26;13.20;99.90
12893;DHT22;6514;48.606;9.222;2023-04-24T15:46:53;13.30;99.90
12893;DHT22;6514;48.606;9.222;2023-04-24T15:49:21;13.90;99.90
12893;DHT22;6514;48.606;9.222;2023-04-24T15:51:48;14.60;99.90
12893;DHT22;6514;48.606;9.222;2023-04-24T15:54:15;15.20;99.90
12893;DHT22;6514;48.606;9.222;2023-04-24T15:56:42;15.50;99.90